Time;durP1;ratioP1;P1;durP2;ratioP2;P2;SDS_P1;SDS_P2;PMS_P1;PMS_P2;Temp;Humidity;BMP_temperature;BMP_pressure;BME280_temperature;BME280_humidity;BME280_pressure;Samples;Min_cycle;Max_cycle;Signal;HPM_P1;HPM_P2
2023/04/18 00:00:21;;;;;;;1.38;0.70;;;9.00;99.90;;;;;;4980180;28;20218;-77
2023/04/18 00:02:53;;;;;;;1.10;1.00;;;9.10;99.90;;;;;;4976364;28;20629;-75
2023/04/18 00:05:22;;;;;;;0.70;0.60;;;9.20;99.90;;;;;;4970778;28;20269;-78
2023/04/18 00:07:51;;;;;;;0.90;0.80;;;9.20;99.90;;;;;;4967380;28;20582;-77
2023/04/18 00:10:19;;;;;;;0.80;0.70;;;9.30;99.90;;;;;;4969802;28;20226;-76
2023/04/18 00:12:47;;;;;;;1.65;1.00;;;9.30;99.90;;;;;;4966879;28;20217;-76
2023/04/18 00:15:15;;;;;;;0.98;0.98;;;9.30;99.90;;;;;;4976853;28;20621;-75
2023/04/18 00:17:43;;;;;;;1.10;0.98;;;9.30;99.90;;;;;;4974447;28;20294;-78
2023/04/18 00:20:13;;;;;;;0.70;0.60;;;9.30;99.90;;;;;;4969682;28;20638;-75
2023/04/18 00:22:42;;;;;;;0.80;0.70;;;9.20;99.90;;;;;;4965371;28;20213;-76
2023/04/18 00:25:10;;;;;;;1.17;0.63;;;9.30;99.90;;;;;;4961826;28;20244;-74
2023/04/18 00:27:39;;;;;;;0.80;0.80;;;9.30;99.90;;;;;;4957895;28;20662;-74
2023/04/18 00:30:08;;;;;;;1.13;1.02;;;9.30;99.90;;;;;;4973349;28;20252;-76
2023/04/18 00:32:36;;;;;;;1.30;0.88;;;9.30;99.90;;;;;;4965472;28;20305;-74
2023/04/18 00:35:05;;;;;;;0.82;0.82;;;9.10;99.90;;;;;;4972549;28;23389;-74
2023/04/18 00:37:34;;;;;;;0.90;0.88;;;9.00;99.90;;;;;;4976805;28;20695;-76
2023/04/18 00:40:04;;;;;;;1.17;1.08;;;9.00;99.90;;;;;;4961723;28;20222;-76
2023/04/18 00:42:33;;;;;;;1.60;1.33;;;8.90;99.90;;;;;;4957606;28;20223;-75
2023/04/18 00:45:01;;;;;;;0.80;0.70;;;8.90;99.90;;;;;;4967518;28;20205;-74
2023/04/18 00:47:29;;;;;;;1.20;0.65;;;8.80;99.90;;;;;;4953969;28;20309;-74
2023/04/18 00:49:57;;;;;;;3.85;1.90;;;8.70;99.90;;;;;;4979058;28;20785;-74
2023/04/18 00:52:26;;;;;;;1.63;1.52;;;8.60;99.90;;;;;;4971733;28;20293;-76
2023/04/18 00:54:56;;;;;;;1.10;0.90;;;8.60;99.90;;;;;;4963808;28;20273;-77
2023/04/18 00:57:24;;;;;;;1.33;1.17;;;8.40;99.90;;;;;;4970332;28;20561;-75
2023/04/18 00:59:52;;;;;;;1.40;0.65;;;8.40;99.90;;;;;;4978760;28;20266;-74
2023/04/18 01:02:20;;;;;;;1.23;1.13;;;8.30;99.90;;;;;;4959884;28;20286;-75
2023/04/18 01:04:49;;;;;;;1.25;0.90;;;8.30;99.90;;;;;;4969526;28;20214;-75
2023/04/18 01:07:16;;;;;;;4.15;1.23;;;8.30;99.90;;;;;;4967697;28;20733;-75
2023/04/18 01:09:45;;;;;;;0.95;0.80;;;8.30;99.90;;;;;;4975148;28;20729;-75
2023/04/18 01:12:14;;;;;;;1.15;1.05;;;8.30;99.90;;;;;;4957393;28;20316;-76
2023/04/18 01:14:42;;;;;;;1.05;0.95;;;8.10;99.90;;;;;;4971654;28;20242;-76
2023/04/18 01:17:12;;;;;;;0.70;0.70;;;8.20;99.90;;;;;;4961571;28;20235;-75
2023/04/18 01:19:40;;;;;;;2.28;0.77;;;8.20;99.90;;;;;;4966194;28;20288;-77
2023/04/18 01:22:09;;;;;;;1.40;1.30;;;8.20;99.90;;;;;;4974259;28;20276;-76
2023/04/18 01:24:38;;;;;;;2.80;1.65;;;8.20;99.90;;;;;;4967900;28;20301;-75
2023/04/18 01:27:06;;;;;;;1.67;1.58;;;8.30;99.90;;;;;;4973075;28;20223;-74
2023/04/18 01:29:34;;;;;;;1.58;1.10;;;8.20;99.90;;;;;;4980035;28;20709;-74
2023/04/18 01:32:05;;;;;;;1.05;0.80;;;8.20;99.90;;;;;;4979908;28;20212;-75
2023/04/18 01:34:34;;;;;;;1.48;1.38;;;8.10;99.90;;;;;;4968766;28;20281;-79
2023/04/18 01:37:01;;;;;;;1.80;1.70;;;8.10;99.90;;;;;;4978357;28;20641;-74
2023/04/18 01:39:29;;;;;;;0.95;0.80;;;8.10;99.90;;;;;;4977561;28;20238;-73
2023/04/18 01:42:00;;;;;;;1.50;1.40;;;8.00;99.90;;;;;;4971908;28;20678;-73
2023/04/18 01:44:28;;;;;;;4.10;1.55;;;8.00;99.90;;;;;;4967632;28;20206;-76
2023/04/18 01:46:55;;;;;;;1.45;1.35;;;7.90;99.90;;;;;;4962195;28;20682;-74
2023/04/18 01:49:23;;;;;;;2.30;1.70;;;7.90;99.90;;;;;;4969903;28;20228;-77
2023/04/18 01:51:51;;;;;;;1.02;0.93;;;7.90;99.90;;;;;;4974614;28;20304;-75
2023/04/18 01:54:19;;;;;;;1.58;1.00;;;7.90;99.90;;;;;;4975182;28;20321;-74
2023/04/18 01:56:47;;;;;;;3.33;1.33;;;8.00;99.90;;;;;;4963781;28;20664;-75
2023/04/18 01:59:16;;;;;;;1.90;1.30;;;8.10;99.90;;;;;;4964646;28;20240;-74
2023/04/18 02:01:44;;;;;;;1.20;1.10;;;8.30;99.90;;;;;;4961337;28;20226;-79
2023/04/18 02:04:12;;;;;;;2.83;1.55;;;8.60;99.90;;;;;;4973187;28;20208;-74
2023/04/18 02:06:40;;;;;;;1.13;1.00;;;8.70;99.90;;;;;;4976302;28;20797;-74
2023/04/18 02:09:08;;;;;;;1.88;1.77;;;8.80;99.90;;;;;;4975233;28;20252;-74
2023/04/18 02:11:36;;;;;;;1.35;1.25;;;8.90;99.90;;;;;;4980701;28;20280;-74
2023/04/18 02:14:04;;;;;;;1.15;1.05;;;8.80;99.90;;;;;;4978069;28;20293;-73
2023/04/18 02:16:34;;;;;;;1.02;1.02;;;8.90;99.90;;;;;;4976324;28;20302;-75
2023/04/18 02:19:03;;;;;;;1.10;1.00;;;9.00;99.90;;;;;;4971792;28;20245;-74
2023/04/18 02:21:31;;;;;;;3.05;1.83;;;8.90;99.90;;;;;;4966772;28;20223;-73
2023/04/18 02:23:59;;;;;;;1.50;1.40;;;8.90;99.90;;;;;;4959048;28;20297;-73
2023/04/18 02:26:27;;;;;;;0.70;0.60;;;8.80;99.90;;;;;;4961336;28;20295;-73
2023/04/18 02:28:54;;;;;;;1.25;0.98;;;8.80;99.90;;;;;;4962501;28;20235;-73
2023/04/18 02:31:22;;;;;;;1.33;0.90;;;8.80;99.90;;;;;;4971427;28;20697;-74
2023/04/18 02:33:51;;;;;;;1.17;1.08;;;8.80;99.90;;;;;;4971161;28;20245;-74
2023/04/18 02:36:19;;;;;;;1.73;1.58;;;8.80;99.90;;;;;;4980123;28;20217;-74
2023/04/18 02:38:47;;;;;;;1.08;0.98;;;8.70;99.90;;;;;;4968519;28;20256;-76
2023/04/18 02:41:18;;;;;;;1.08;0.93;;;8.70;99.90;;;;;;4974808;28;20310;-75
2023/04/18 02:43:46;;;;;;;1.67;1.58;;;8.80;99.90;;;;;;4961342;28;20256;-78
2023/04/18 02:46:14;;;;;;;1.45;1.35;;;8.80;99.90;;;;;;4978843;28;20209;-75
2023/04/18 02:48:41;;;;;;;0.75;0.68;;;8.80;99.90;;;;;;4962792;28;20288;-74
2023/04/18 02:51:11;;;;;;;1.88;1.77;;;8.80;99.90;;;;;;4971578;28;20212;-74
2023/04/18 02:53:39;;;;;;;2.45;1.58;;;8.70;99.90;;;;;;4972517;28;20292;-75
2023/04/18 02:56:07;;;;;;;1.55;1.45;;;8.70;99.90;;;;;;4972264;28;20747;-74
2023/04/18 02:58:35;;;;;;;1.95;1.27;;;8.70;99.90;;;;;;4979575;28;20713;-75
2023/04/18 03:01:03;;;;;;;1.63;1.52;;;8.70;99.90;;;;;;4959975;28;20237;-74
2023/04/18 03:03:31;;;;;;;1.23;1.08;;;8.70;99.90;;;;;;4978049;28;20205;-73
2023/04/18 03:06:00;;;;;;;2.78;2.00;;;8.60;99.90;;;;;;4975931;28;20211;-74
2023/04/18 03:08:29;;;;;;;1.02;0.95;;;8.40;99.90;;;;;;4977282;28;20256;-74
2023/04/18 03:10:57;;;;;;;2.08;1.92;;;8.40;99.90;;;;;;4971930;28;20233;-74
2023/04/18 03:13:25;;;;;;;1.40;1.30;;;8.40;99.90;;;;;;4970391;28;20209;-75
2023/04/18 03:15:53;;;;;;;2.30;1.75;;;8.40;99.90;;;;;;4959334;28;20217;-75
2023/04/18 03:18:21;;;;;;;2.55;1.60;;;8.40;99.90;;;;;;4969044;28;20221;-75
2023/04/18 03:20:48;;;;;;;1.60;1.35;;;8.30;99.90;;;;;;4960407;28;20235;-75
2023/04/18 03:23:16;;;;;;;1.50;1.40;;;8.10;99.90;;;;;;4970364;28;20298;-74
2023/04/18 03:25:46;;;;;;;2.38;1.00;;;8.10;99.90;;;;;;4975979;28;20216;-74
2023/04/18 03:28:14;;;;;;;1.83;1.70;;;8.10;99.90;;;;;;4971548;28;20292;-74
2023/04/18 03:30:42;;;;;;;2.60;1.40;;;8.00;99.90;;;;;;4978341;28;20201;-75
2023/04/18 03:33:10;;;;;;;2.50;1.63;;;7.90;99.90;;;;;;4962609;28;20303;-75
2023/04/18 03:35:38;;;;;;;1.30;1.20;;;7.80;99.90;;;;;;4969842;28;20214;-75
2023/04/18 03:38:06;;;;;;;1.55;1.45;;;7.80;99.90;;;;;;4968311;28;20288;-80
2023/04/18 03:40:34;;;;;;;2.00;1.73;;;7.60;99.90;;;;;;4967713;28;20272;-77
2023/04/18 03:43:03;;;;;;;1.58;1.48;;;7.50;99.90;;;;;;4963094;28;20210;-75
2023/04/18 03:45:31;;;;;;;2.00;1.70;;;7.40;99.90;;;;;;4971039;28;20280;-75
2023/04/18 03:47:59;;;;;;;2.10;1.90;;;7.40;99.90;;;;;;4969806;28;20292;-76
2023/04/18 03:50:27;;;;;;;1.73;1.63;;;7.40;99.90;;;;;;4956464;28;20645;-76
2023/04/18 03:52:55;;;;;;;1.88;1.77;;;7.20;99.90;;;;;;4972329;28;20233;-77
2023/04/18 03:55:23;;;;;;;2.10;2.00;;;7.20;99.90;;;;;;4979239;28;20755;-76
2023/04/18 03:57:50;;;;;;;3.38;2.85;;;7.20;99.90;;;;;;4959743;28;20250;-77
2023/04/18 04:00:20;;;;;;;2.17;1.98;;;7.20;99.90;;;;;;4959981;28;20261;-78
2023/04/18 04:02:48;;;;;;;2.22;1.95;;;7.10;99.90;;;;;;4965937;28;20281;-76
2023/04/18 04:05:16;;;;;;;4.28;2.83;;;7.10;99.90;;;;;;4971508;28;20221;-76
2023/04/18 04:07:44;;;;;;;2.83;2.53;;;7.00;99.90;;;;;;4966925;28;20669;-76
2023/04/18 04:10:12;;;;;;;2.53;2.33;;;7.00;99.90;;;;;;4971278;28;20253;-75
2023/04/18 04:12:40;;;;;;;3.17;2.55;;;7.00;99.90;;;;;;4972120;28;20633;-76
2023/04/18 04:15:08;;;;;;;2.28;2.13;;;7.00;99.90;;;;;;4966892;28;20289;-75
2023/04/18 04:17:37;;;;;;;2.30;2.10;;;7.00;99.90;;;;;;4972319;28;20649;-74
2023/04/18 04:20:07;;;;;;;2.38;1.70;;;6.90;99.90;;;;;;4963310;28;20309;-76
2023/04/18 04:22:35;;;;;;;1.33;1.23;;;7.00;99.90;;;;;;4963729;28;20220;-75
2023/04/18 04:25:05;;;;;;;3.15;2.08;;;6.90;99.90;;;;;;4973250;28;20271;-73
2023/04/18 04:27:35;;;;;;;1.95;1.85;;;6.90;99.90;;;;;;4965552;28;20242;-74
2023/04/18 04:30:04;;;;;;;3.90;3.03;;;7.00;99.90;;;;;;4972183;28;20229;-72
2023/04/18 04:32:32;;;;;;;3.00;2.70;;;7.00;99.90;;;;;;4975304;28;20690;-73
2023/04/18 04:35:01;;;;;;;2.55;2.35;;;7.00;99.90;;;;;;4949893;28;20675;-74
2023/04/18 04:37:29;;;;;;;3.33;3.03;;;7.00;99.90;;;;;;4978613;28;20281;-77
2023/04/18 04:39:59;;;;;;;3.15;2.28;;;6.90;99.90;;;;;;4976365;28;20312;-77
2023/04/18 04:42:27;;;;;;;2.70;2.35;;;6.90;99.90;;;;;;4974247;28;20229;-77
2023/04/18 04:44:55;;;;;;;3.08;2.10;;;7.00;99.90;;;;;;4976584;28;20244;-76
2023/04/18 04:47:23;;;;;;;2.33;2.13;;;7.00;99.90;;;;;;4976011;28;20227;-75
2023/04/18 04:49:51;;;;;;;3.75;2.60;;;7.00;99.90;;;;;;4967831;28;20703;-74
2023/04/18 04:52:20;;;;;;;3.22;2.08;;;7.00;99.90;;;;;;4959507;28;20287;-74
2023/04/18 04:54:48;;;;;;;1.98;1.77;;;7.00;99.90;;;;;;4972406;28;20348;-76
2023/04/18 04:57:16;;;;;;;2.53;1.95;;;7.00;99.90;;;;;;4971470;28;20209;-74
2023/04/18 04:59:43;;;;;;;1.88;1.60;;;7.00;99.90;;;;;;4963804;28;20893;-74
2023/04/18 05:02:11;;;;;;;2.70;1.85;;;7.00;99.90;;;;;;4967729;28;20715;-74
2023/04/18 05:04:39;;;;;;;1.83;1.70;;;7.00;99.90;;;;;;4969240;28;20220;-75
2023/04/18 05:07:07;;;;;;;2.63;2.40;;;7.00;99.90;;;;;;4970271;28;20217;-74
2023/04/18 05:09:37;;;;;;;1.90;1.70;;;7.00;99.90;;;;;;4963007;28;20256;-75
2023/04/18 05:12:05;;;;;;;3.92;2.35;;;6.90;99.90;;;;;;4968810;28;20706;-75
2023/04/18 05:14:33;;;;;;;3.05;2.42;;;6.90;99.90;;;;;;4961509;28;20210;-74
2023/04/18 05:17:01;;;;;;;2.65;1.98;;;6.90;99.90;;;;;;4968862;28;20244;-75
2023/04/18 05:19:29;;;;;;;3.92;2.70;;;6.90;99.90;;;;;;4963785;28;20680;-74
2023/04/18 05:21:57;;;;;;;2.15;1.95;;;6.90;99.90;;;;;;4969697;28;20304;-75
2023/04/18 05:24:25;;;;;;;3.20;2.83;;;7.00;99.90;;;;;;4961631;28;20252;-75
2023/04/18 05:26:55;;;;;;;2.30;1.67;;;7.10;99.90;;;;;;4969545;28;20664;-73
2023/04/18 05:29:23;;;;;;;2.50;1.33;;;7.10;99.90;;;;;;4969407;28;20255;-74
2023/04/18 05:31:51;;;;;;;1.45;1.35;;;7.10;99.90;;;;;;4966598;28;20683;-75
2023/04/18 05:34:19;;;;;;;1.80;1.65;;;7.20;99.90;;;;;;4969483;28;20297;-74
2023/04/18 05:36:47;;;;;;;1.27;1.15;;;7.20;99.90;;;;;;4969455;28;20248;-74
2023/04/18 05:39:15;;;;;;;2.22;1.40;;;7.40;99.90;;;;;;4988013;23;20276;-62
2023/04/18 05:41:43;;;;;;;1.40;1.20;;;7.40;99.90;;;;;;4969235;28;20265;-62
2023/04/18 05:44:12;;;;;;;1.73;1.25;;;7.60;99.90;;;;;;4971340;28;20219;-62
2023/04/18 05:46:40;;;;;;;3.08;2.25;;;7.60;99.90;;;;;;4971191;28;20958;-62
2023/04/18 05:49:08;;;;;;;2.38;1.30;;;7.70;99.90;;;;;;4970845;28;20298;-62
2023/04/18 05:51:36;;;;;;;1.33;1.23;;;7.80;99.90;;;;;;4971531;28;20268;-62
2023/04/18 05:54:04;;;;;;;1.77;1.45;;;7.80;99.90;;;;;;4971279;28;20675;-62
2023/04/18 05:56:32;;;;;;;1.50;1.30;;;7.80;99.90;;;;;;4971355;28;20725;-62
2023/04/18 05:58:59;;;;;;;2.08;1.88;;;7.90;99.90;;;;;;4971356;28;20247;-62
2023/04/18 06:01:29;;;;;;;2.05;1.77;;;8.00;99.90;;;;;;4963128;28;20208;-62
2023/04/18 06:03:56;;;;;;;2.90;2.15;;;8.00;99.90;;;;;;4965215;28;20221;-62
2023/04/18 06:06:26;;;;;;;2.40;2.20;;;8.00;99.90;;;;;;4974014;28;20280;-62
2023/04/18 06:08:54;;;;;;;2.15;1.65;;;8.00;99.90;;;;;;4974870;28;20622;-62
2023/04/18 06:11:22;;;;;;;1.65;1.52;;;8.00;99.90;;;;;;4974742;28;20289;-63
2023/04/18 06:13:50;;;;;;;2.25;2.05;;;8.00;99.90;;;;;;4974238;28;20303;-63
2023/04/18 06:16:18;;;;;;;1.95;1.75;;;8.10;99.90;;;;;;4974173;28;20213;-62
2023/04/18 06:18:47;;;;;;;3.25;1.50;;;8.20;99.90;;;;;;4974523;28;20214;-62
2023/04/18 06:21:15;;;;;;;1.92;1.77;;;8.30;99.90;;;;;;4974500;28;20594;-63
2023/04/18 06:23:42;;;;;;;2.22;1.52;;;8.30;99.90;;;;;;4974545;28;20251;-62
2023/04/18 06:26:11;;;;;;;1.38;1.00;;;8.40;99.90;;;;;;4974196;28;20342;-63
2023/04/18 06:28:39;;;;;;;3.42;1.77;;;8.50;99.90;;;;;;4973967;28;20223;-63
2023/04/18 06:31:07;;;;;;;1.80;1.70;;;8.50;99.90;;;;;;4974251;28;20216;-62
2023/04/18 06:33:36;;;;;;;1.55;1.45;;;8.50;99.90;;;;;;4974377;28;20215;-62
2023/04/18 06:36:07;;;;;;;1.63;1.52;;;8.60;99.90;;;;;;4973989;28;20632;-62
2023/04/18 06:38:35;;;;;;;1.55;1.45;;;8.60;99.90;;;;;;4974071;28;20220;-62
2023/04/18 06:41:03;;;;;;;1.35;1.25;;;8.60;99.90;;;;;;4974326;28;20767;-62
2023/04/18 06:43:31;;;;;;;6.53;2.40;;;8.60;99.90;;;;;;4973929;28;20822;-62
2023/04/18 06:45:59;;;;;;;2.78;1.70;;;8.70;99.90;;;;;;4973714;28;20225;-62
2023/04/18 06:48:27;;;;;;;1.77;1.52;;;8.70;99.90;;;;;;4973721;28;20204;-62
2023/04/18 06:50:55;;;;;;;2.15;1.40;;;8.70;99.90;;;;;;4973481;28;20292;-63
2023/04/18 06:53:24;;;;;;;1.40;1.30;;;8.80;99.90;;;;;;4972524;28;20209;-63
2023/04/18 06:55:52;;;;;;;2.88;1.60;;;8.70;99.90;;;;;;4972684;28;20304;-63
2023/04/18 06:58:20;;;;;;;1.58;1.48;;;8.70;99.90;;;;;;4973472;28;20718;-62
2023/04/18 07:00:50;;;;;;;1.80;1.20;;;8.70;99.90;;;;;;4974233;28;20611;-63
2023/04/18 07:03:18;;;;;;;2.70;2.50;;;8.70;99.90;;;;;;4973103;28;20324;-62
2023/04/18 07:05:46;;;;;;;1.95;1.85;;;8.70;99.90;;;;;;4971002;28;20210;-62
2023/04/18 07:08:14;;;;;;;3.67;3.08;;;8.60;99.90;;;;;;4968772;28;20206;-62
2023/04/18 07:10:43;;;;;;;2.63;1.33;;;8.60;99.90;;;;;;4967413;28;20317;-62
2023/04/18 07:13:11;;;;;;;4.85;1.67;;;8.60;99.90;;;;;;4963138;28;20683;-63
2023/04/18 07:15:39;;;;;;;2.03;1.83;;;8.60;99.90;;;;;;4968604;28;20240;-62
2023/04/18 07:18:07;;;;;;;1.60;1.50;;;8.60;99.90;;;;;;4967902;28;20235;-62
2023/04/18 07:20:35;;;;;;;1.00;0.90;;;8.60;99.90;;;;;;4968280;28;20230;-61
2023/04/18 07:23:03;;;;;;;3.95;1.80;;;8.70;99.90;;;;;;4964757;28;20316;-62
2023/04/18 07:25:31;;;;;;;1.50;1.40;;;8.60;99.90;;;;;;4969275;28;20244;-62
2023/04/18 07:28:01;;;;;;;1.00;0.85;;;8.70;99.90;;;;;;4969061;28;20236;-62
2023/04/18 07:30:29;;;;;;;2.10;1.20;;;8.70;99.90;;;;;;4968029;28;20668;-62
2023/04/18 07:32:57;;;;;;;1.33;1.23;;;8.70;99.90;;;;;;4970234;28;20234;-62
2023/04/18 07:35:25;;;;;;;2.25;1.50;;;8.80;99.90;;;;;;4972638;28;20211;-62
2023/04/18 07:37:53;;;;;;;1.35;1.00;;;8.80;99.90;;;;;;4972485;28;20661;-62
2023/04/18 07:40:21;;;;;;;3.10;1.48;;;8.90;99.90;;;;;;4971523;28;20245;-62
2023/04/18 07:42:49;;;;;;;0.95;0.85;;;8.90;99.90;;;;;;4970458;28;20223;-62
2023/04/18 07:45:18;;;;;;;2.00;1.80;;;9.00;99.90;;;;;;4966632;28;20234;-61
2023/04/18 07:47:46;;;;;;;1.90;1.30;;;9.00;99.90;;;;;;4969493;28;20210;-62
2023/04/18 07:50:14;;;;;;;1.13;1.00;;;9.10;99.90;;;;;;4967507;28;20233;-62
2023/04/18 07:52:46;;;;;;;1.38;0.93;;;9.20;99.90;;;;;;4964424;28;20230;-62
2023/04/18 07:55:14;;;;;;;0.75;0.75;;;9.30;99.90;;;;;;4966037;28;20241;-62
2023/04/18 07:57:43;;;;;;;1.67;1.58;;;9.40;99.90;;;;;;4966794;28;20211;-62
2023/04/18 08:00:15;;;;;;;1.92;1.35;;;9.40;99.90;;;;;;4958276;28;20222;-62
2023/04/18 08:02:45;;;;;;;0.82;0.80;;;9.40;99.90;;;;;;4967543;28;20290;-62
2023/04/18 08:05:13;;;;;;;0.80;0.70;;;9.50;99.90;;;;;;4967964;28;20589;-62
2023/04/18 08:07:41;;;;;;;0.60;0.57;;;9.60;99.90;;;;;;4962797;28;20215;-63
2023/04/18 08:10:10;;;;;;;1.08;0.98;;;9.70;99.90;;;;;;4968199;28;20250;-62
2023/04/18 08:12:38;;;;;;;0.80;0.80;;;9.60;99.90;;;;;;4964884;28;20210;-62
2023/04/18 08:15:07;;;;;;;1.50;1.15;;;9.60;99.90;;;;;;4969482;28;20241;-62
2023/04/18 08:17:36;;;;;;;3.88;2.90;;;9.60;99.90;;;;;;4966271;28;20649;-62
2023/04/18 08:20:06;;;;;;;1.25;1.15;;;9.60;99.90;;;;;;4963096;28;20312;-62
2023/04/18 08:22:34;;;;;;;2.05;1.50;;;9.70;99.90;;;;;;4964179;28;20290;-62
2023/04/18 08:25:13;;;;;;;1.17;0.93;;;9.80;99.90;;;;;;4965516;28;20585;-62
2023/04/18 08:27:42;;;;;;;1.13;1.02;;;9.90;99.90;;;;;;4964930;28;20211;-62
2023/04/18 08:30:11;;;;;;;0.90;0.70;;;10.00;99.90;;;;;;4968512;28;20225;-62
2023/04/18 08:32:39;;;;;;;1.35;0.70;;;10.10;99.90;;;;;;4963444;28;20241;-62
2023/04/18 08:35:09;;;;;;;1.27;1.17;;;10.10;99.90;;;;;;4965593;28;20206;-62
2023/04/18 08:37:37;;;;;;;1.23;0.85;;;10.00;99.90;;;;;;4964838;28;20473;-62
2023/04/18 08:40:06;;;;;;;1.45;1.35;;;10.10;99.90;;;;;;4961026;28;20331;-63
2023/04/18 08:42:35;;;;;;;0.90;0.90;;;10.10;99.90;;;;;;4964289;28;20214;-62
2023/04/18 08:45:04;;;;;;;0.60;0.60;;;10.10;99.90;;;;;;4965710;28;20273;-62
2023/04/18 08:47:31;;;;;;;0.60;0.50;;;10.10;99.90;;;;;;4964694;28;20237;-62
2023/04/18 08:50:01;;;;;;;2.17;1.88;;;10.20;99.90;;;;;;4966455;28;20236;-62
2023/04/18 08:52:33;;;;;;;1.85;0.95;;;10.10;99.90;;;;;;4962828;28;20693;-62
2023/04/18 08:55:02;;;;;;;0.70;0.65;;;10.20;99.90;;;;;;4966633;28;20210;-62
2023/04/18 08:57:32;;;;;;;1.73;1.33;;;10.20;99.90;;;;;;4966783;28;20682;-62
2023/04/18 09:00:00;;;;;;;0.70;0.70;;;10.20;99.90;;;;;;4964059;28;20234;-62
2023/04/18 09:02:37;;;;;;;1.45;1.00;;;10.30;99.90;;;;;;4964749;28;20288;-62
2023/04/18 09:05:11;;;;;;;0.60;0.45;;;10.30;99.90;;;;;;4965845;28;20218;-66
2023/04/18 09:07:41;;;;;;;1.85;1.73;;;10.50;99.90;;;;;;4965047;28;20218;-62
2023/04/18 09:10:11;;;;;;;1.27;1.17;;;10.60;99.90;;;;;;4961924;28;20733;-62
2023/04/18 09:12:48;;;;;;;1.85;0.98;;;10.70;99.90;;;;;;4967634;28;20206;-62
2023/04/18 09:15:21;;;;;;;0.80;0.80;;;10.80;99.90;;;;;;4965251;28;20230;-62
2023/04/18 09:17:52;;;;;;;2.08;1.02;;;10.80;99.90;;;;;;4966326;28;20226;-62
2023/04/18 09:20:29;;;;;;;0.88;0.80;;;11.00;99.90;;;;;;4962964;28;20313;-62
2023/04/18 09:22:59;;;;;;;0.95;0.82;;;11.50;99.90;;;;;;4965381;28;20265;-62
2023/04/18 09:25:29;;;;;;;1.10;1.00;;;11.80;99.90;;;;;;4965935;28;20219;-62
2023/04/18 09:27:59;;;;;;;0.70;0.60;;;12.30;99.90;;;;;;4963300;28;20245;-62
2023/04/18 09:30:37;;;;;;;0.98;0.80;;;12.60;99.90;;;;;;4964630;28;20257;-62
2023/04/18 09:33:08;;;;;;;0.70;0.70;;;13.00;99.90;;;;;;4962516;28;20695;-62
2023/04/18 09:35:37;;;;;;;0.60;0.45;;;13.10;99.90;;;;;;4965745;28;20259;-62
2023/04/18 09:38:07;;;;;;;0.95;0.85;;;13.10;99.90;;;;;;4962490;28;20207;-62
2023/04/18 09:40:35;;;;;;;0.82;0.75;;;13.20;99.90;;;;;;4966921;28;20253;-62
2023/04/18 09:43:18;;;;;;;2.08;1.38;;;13.20;99.90;;;;;;4967997;28;20262;-62
2023/04/18 09:45:46;;;;;;;1.10;1.00;;;13.30;99.90;;;;;;4970191;28;20231;-62
2023/04/18 09:48:15;;;;;;;1.48;1.00;;;13.40;99.90;;;;;;4970121;28;20257;-62
2023/04/18 09:50:44;;;;;;;1.40;1.30;;;13.40;99.90;;;;;;4967602;28;20279;-62
2023/04/18 09:53:17;;;;;;;1.13;1.02;;;13.50;99.90;;;;;;4968535;28;20209;-62
2023/04/18 09:55:51;;;;;;;0.60;0.50;;;13.80;99.90;;;;;;4969791;28;20624;-62
2023/04/18 09:58:21;;;;;;;0.65;0.65;;;14.10;99.90;;;;;;4969044;28;20214;-62
2023/04/18 10:00:51;;;;;;;0.60;0.60;;;14.50;99.90;;;;;;4967728;28;20314;-62
2023/04/18 10:03:19;;;;;;;0.90;0.73;;;14.70;99.90;;;;;;4967316;28;20293;-62
2023/04/18 10:05:48;;;;;;;0.60;0.50;;;14.60;99.90;;;;;;4973595;28;20226;-62
2023/04/18 10:08:18;;;;;;;0.60;0.60;;;14.70;99.90;;;;;;4973146;28;20210;-63
2023/04/18 10:10:46;;;;;;;0.70;0.60;;;14.70;99.90;;;;;;4969134;28;20234;-63
2023/04/18 10:13:14;;;;;;;1.23;0.95;;;14.90;99.90;;;;;;4968408;28;20203;-62
2023/04/18 10:15:44;;;;;;;1.40;1.30;;;15.10;99.90;;;;;;4970122;28;20468;-62
2023/04/18 10:18:15;;;;;;;1.00;0.90;;;14.90;99.90;;;;;;4968226;28;20245;-63
2023/04/18 10:20:43;;;;;;;0.80;0.80;;;14.80;99.90;;;;;;4968505;28;20245;-62
2023/04/18 10:23:36;;;;;;;1.63;1.52;;;14.60;99.90;;;;;;4970130;28;20723;-62
2023/04/18 10:26:05;;;;;;;1.33;0.57;;;14.20;99.90;;;;;;4967409;28;20916;-62
2023/04/18 10:28:53;;;;;;;0.50;0.40;;;13.90;99.90;;;;;;4965283;28;20237;-62
2023/04/18 10:31:22;;;;;;;1.13;0.68;;;13.70;99.90;;;;;;4966359;28;20207;-62
2023/04/18 10:33:53;;;;;;;1.38;1.27;;;13.70;99.90;;;;;;4968277;28;20265;-64
2023/04/18 10:36:32;;;;;;;1.38;1.00;;;13.70;99.90;;;;;;4967040;28;20206;-63
2023/04/18 10:39:19;;;;;;;0.80;0.80;;;14.00;99.90;;;;;;4966482;28;20254;-62
2023/04/18 10:41:49;;;;;;;1.20;0.90;;;14.20;99.90;;;;;;4966889;28;20672;-62
2023/04/18 10:44:21;;;;;;;1.00;0.90;;;14.20;99.90;;;;;;4967585;28;20234;-63
2023/04/18 10:47:21;;;;;;;1.10;0.95;;;14.20;99.90;;;;;;4970312;28;20205;-63
2023/04/18 10:50:00;;;;;;;0.95;0.88;;;14.10;99.90;;;;;;4963874;28;20669;-63
2023/04/18 10:52:29;;;;;;;1.35;1.00;;;13.80;99.90;;;;;;4965844;28;20288;-62
2023/04/18 10:55:24;;;;;;;0.60;0.40;;;13.70;99.90;;;;;;4966994;28;20206;-63
2023/04/18 10:57:54;;;;;;;0.80;0.73;;;13.70;99.90;;;;;;4968162;28;20225;-62
2023/04/18 11:00:23;;;;;;;0.93;0.88;;;13.70;99.90;;;;;;4967138;28;20231;-62
2023/04/18 11:02:54;;;;;;;0.75;0.75;;;13.90;99.90;;;;;;4969328;28;20618;-62
2023/04/18 11:05:24;;;;;;;1.17;1.08;;;14.10;99.90;;;;;;4967111;28;20310;-63
2023/04/18 11:07:53;;;;;;;0.50;0.40;;;14.40;99.90;;;;;;4969662;28;20264;-63
2023/04/18 11:10:25;;;;;;;0.80;0.80;;;14.50;99.90;;;;;;4967424;28;20237;-63
2023/04/18 11:12:54;;;;;;;0.82;0.70;;;14.80;99.90;;;;;;4966836;28;20720;-64
2023/04/18 11:15:23;;;;;;;0.88;0.50;;;15.40;99.90;;;;;;4965320;28;20199;-63
2023/04/18 11:17:59;;;;;;;1.30;0.90;;;15.90;99.90;;;;;;4967514;28;20198;-63
2023/04/18 11:20:28;;;;;;;1.00;0.95;;;16.10;99.90;;;;;;4966963;28;20285;-63
2023/04/18 11:22:57;;;;;;;1.30;1.15;;;16.40;99.90;;;;;;4968339;28;20215;-64
2023/04/18 11:25:29;;;;;;;1.05;0.90;;;16.50;99.90;;;;;;4967744;28;20282;-63
2023/04/18 11:27:59;;;;;;;0.80;0.80;;;16.70;99.90;;;;;;4950581;28;20310;-63
2023/04/18 11:30:28;;;;;;;1.25;0.63;;;16.60;99.90;;;;;;4966997;28;20672;-63
2023/04/18 11:32:55;;;;;;;1.42;0.85;;;16.80;99.90;;;;;;4968584;28;20214;-63
2023/04/18 11:35:23;;;;;;;1.08;0.75;;;17.10;99.90;;;;;;4966109;28;20851;-63
2023/04/18 11:37:54;;;;;;;0.60;0.50;;;17.40;99.90;;;;;;4967787;28;20262;-63
2023/04/18 11:40:22;;;;;;;0.60;0.57;;;17.70;99.90;;;;;;5013918;23;20326;-71
2023/04/18 11:42:54;;;;;;;1.42;1.33;;;17.80;99.90;;;;;;4948745;29;20391;-72
2023/04/18 11:45:22;;;;;;;0.95;0.88;;;17.60;99.90;;;;;;4949758;29;20784;-71
2023/04/18 11:47:56;;;;;;;0.93;0.93;;;17.70;99.90;;;;;;4941250;28;20302;-71
2023/04/18 11:50:25;;;;;;;0.70;0.70;;;17.40;99.90;;;;;;4940979;28;20357;-71
2023/04/18 11:52:54;;;;;;;0.93;0.93;;;17.50;99.90;;;;;;4939692;29;20239;-70
2023/04/18 11:55:23;;;;;;;0.77;0.40;;;17.60;99.90;;;;;;4933017;29;20737;-70
2023/04/18 11:57:55;;;;;;;0.70;0.60;;;17.70;99.90;;;;;;4943064;28;20290;-70
2023/04/18 12:00:32;;;;;;;0.57;0.43;;;17.80;99.90;;;;;;4936200;29;20223;-68
2023/04/18 12:03:03;;;;;;;0.70;0.70;;;17.80;99.90;;;;;;4941818;28;20290;-69
2023/04/18 12:05:34;;;;;;;0.60;0.50;;;17.50;99.90;;;;;;4948219;28;20216;-69
2023/04/18 12:08:06;;;;;;;0.70;0.70;;;16.90;99.90;;;;;;4944525;28;20246;-71
2023/04/18 12:10:35;;;;;;;0.50;0.40;;;16.90;99.90;;;;;;4946400;29;20309;-69
2023/04/18 12:13:08;;;;;;;1.00;1.00;;;17.10;99.90;;;;;;4945701;29;20210;-70
2023/04/18 12:15:39;;;;;;;0.80;0.60;;;17.40;99.90;;;;;;4943872;29;20641;-69
2023/04/18 12:18:08;;;;;;;0.70;0.50;;;17.70;99.90;;;;;;4942877;28;20207;-69
2023/04/18 12:20:38;;;;;;;0.77;0.65;;;17.80;99.90;;;;;;4947278;29;20698;-68
2023/04/18 12:23:06;;;;;;;0.60;0.50;;;17.80;99.90;;;;;;4948546;29;20315;-68
2023/04/18 12:25:35;;;;;;;0.60;0.50;;;18.20;99.90;;;;;;4943617;29;20229;-71
2023/04/18 12:28:12;;;;;;;0.65;0.55;;;18.80;99.90;;;;;;4947113;29;20594;-71
2023/04/18 12:30:42;;;;;;;0.60;0.40;;;19.10;99.90;;;;;;4945031;29;20242;-71
2023/04/18 12:33:11;;;;;;;0.63;0.63;;;19.00;99.90;;;;;;4945903;28;20215;-72
2023/04/18 12:35:42;;;;;;;1.45;0.70;;;19.20;99.90;;;;;;4929142;28;20215;-71
2023/04/18 12:38:10;;;;;;;0.60;0.50;;;19.40;99.90;;;;;;4945414;28;20199;-71
2023/04/18 12:40:39;;;;;;;0.70;0.50;;;19.40;99.90;;;;;;4952857;28;20727;-72
2023/04/18 12:43:07;;;;;;;0.60;0.40;;;19.10;99.90;;;;;;4949088;28;20270;-71
2023/04/18 12:45:35;;;;;;;0.60;0.43;;;18.60;99.90;;;;;;4946818;28;20302;-69
2023/04/18 12:48:05;;;;;;;0.60;0.50;;;18.00;99.90;;;;;;4946327;28;20563;-68
2023/04/18 12:50:33;;;;;;;0.70;0.50;;;17.30;99.90;;;;;;4949331;28;20802;-69
2023/04/18 12:53:01;;;;;;;0.60;0.60;;;16.90;99.90;;;;;;4952039;28;20286;-69
2023/04/18 12:55:29;;;;;;;0.60;0.50;;;16.60;99.90;;;;;;4950650;28;20203;-69
2023/04/18 12:57:57;;;;;;;0.70;0.60;;;16.40;99.90;;;;;;4956540;28;20219;-68
2023/04/18 13:00:27;;;;;;;0.70;0.50;;;16.10;99.90;;;;;;4949553;28;20250;-69
2023/04/18 13:02:55;;;;;;;0.98;0.88;;;16.00;99.90;;;;;;4943150;28;20196;-68